createdAt,value
2019-05-30T00:02:08.462Z,2.63
2019-05-30T00:04:38.974Z,2.53
2019-05-30T00:07:11.089Z,2.30
2019-05-30T00:09:43.494Z,2.50
2019-05-30T00:12:14.073Z,2.40
2019-05-30T00:14:44.522Z,2.43
2019-05-30T00:17:16.073Z,2.50
2019-05-30T00:19:46.512Z,2.20
2019-05-30T00:22:16.949Z,2.40
2019-05-30T00:24:47.358Z,2.60
2019-05-30T00:27:17.793Z,2.33
2019-05-30T00:29:49.246Z,2.50
2019-05-30T00:32:19.676Z,2.60
2019-05-30T00:34:50.142Z,2.80
2019-05-30T00:37:20.635Z,2.60
2019-05-30T00:39:51.043Z,2.73
2019-05-30T00:42:21.573Z,2.27
2019-05-30T00:44:51.998Z,2.63
2019-05-30T00:47:22.443Z,3.30
2019-05-30T00:49:54.000Z,2.67
2019-05-30T00:52:24.419Z,2.90
2019-05-30T00:54:54.837Z,2.90
2019-05-30T00:57:25.274Z,2.47
2019-05-30T00:59:56.727Z,3.27
2019-05-30T01:02:27.150Z,3.10
2019-05-30T01:04:58.840Z,3.00
2019-05-30T01:07:29.383Z,3.40
2019-05-30T01:10:00.885Z,2.63
2019-05-30T01:12:31.511Z,3.07
2019-05-30T01:15:03.302Z,3.30
2019-05-30T01:17:33.799Z,3.40
2019-05-30T01:20:05.311Z,3.30
2019-05-30T01:22:35.790Z,3.20
2019-05-30T01:25:07.857Z,3.27
2019-05-30T01:27:38.485Z,3.60
2019-05-30T01:30:10.036Z,3.10
2019-05-30T01:32:40.464Z,3.23
2019-05-30T01:35:11.295Z,3.13
2019-05-30T01:37:41.735Z,3.10
2019-05-30T01:40:14.260Z,3.07
2019-05-30T01:42:44.728Z,3.30
2019-05-30T01:45:15.661Z,2.83
2019-05-30T01:47:46.087Z,2.80
2019-05-30T01:50:17.898Z,2.77
2019-05-30T01:52:48.378Z,3.20
2019-05-30T01:55:18.905Z,2.60
2019-05-30T01:57:49.335Z,2.77
2019-05-30T02:00:21.649Z,1.90
2019-05-30T02:02:52.246Z,2.40
2019-05-30T02:05:22.878Z,2.03
2019-05-30T02:07:52.377Z,1.73
2019-05-30T02:10:22.026Z,1.80
2019-05-30T02:12:51.841Z,1.63
2019-05-30T02:15:21.409Z,1.80
2019-05-30T02:17:51.825Z,2.00
2019-05-30T02:20:22.472Z,2.17
2019-05-30T02:22:52.049Z,2.10
2019-05-30T02:25:21.775Z,2.07
2019-05-30T02:27:51.366Z,1.90
2019-05-30T02:30:21.212Z,2.33
2019-05-30T02:32:50.919Z,1.73
2019-05-30T02:35:20.513Z,2.00
2019-05-30T02:37:50.017Z,1.73
2019-05-30T02:40:19.647Z,1.87
2019-05-30T02:42:49.178Z,1.90
2019-05-30T02:45:18.856Z,1.97
2019-05-30T02:47:48.452Z,1.80
2019-05-30T02:50:18.383Z,1.50
2019-05-30T02:52:48.194Z,1.53
2019-05-30T02:55:18.287Z,1.83
2019-05-30T02:57:48.009Z,1.57
2019-05-30T03:00:18.319Z,1.57
2019-05-30T03:02:47.955Z,1.77
2019-05-30T03:05:17.558Z,1.43
2019-05-30T03:07:47.988Z,1.60
2019-05-30T03:10:18.683Z,1.70
2019-05-30T03:12:49.363Z,1.47
2019-05-30T03:15:20.450Z,1.57
2019-05-30T03:17:50.917Z,1.50
2019-05-30T03:20:23.454Z,1.73
2019-05-30T03:22:53.407Z,1.50
2019-05-30T03:25:23.130Z,1.37
2019-05-30T03:27:52.732Z,1.50
2019-05-30T03:30:28.436Z,1.20
2019-05-30T03:33:29.003Z,1.90
2019-05-30T03:35:30.399Z,1.70
2019-05-30T03:37:57.618Z,1.80
2019-05-30T03:40:29.726Z,1.47
2019-05-30T03:42:59.384Z,1.53
2019-05-30T03:45:31.471Z,1.50
2019-05-30T03:48:06.717Z,1.60
2019-05-30T03:50:40.407Z,1.70
2019-05-30T03:53:13.553Z,1.50
2019-05-30T03:55:46.278Z,1.60
2019-05-30T03:58:27.115Z,1.70
2019-05-30T04:01:00.953Z,1.53
2019-05-30T04:03:53.709Z,1.87
2019-05-30T04:06:30.296Z,1.60
2019-05-30T04:09:04.971Z,1.50
2019-05-30T04:11:53.746Z,1.20
2019-05-30T04:14:27.768Z,1.73
2019-05-30T04:16:58.347Z,1.50
2019-05-30T04:19:30.354Z,1.60
2019-05-30T04:22:02.244Z,1.70
2019-05-30T04:24:32.657Z,1.70
2019-05-30T04:27:03.191Z,1.60
2019-05-30T04:29:33.607Z,1.27
2019-05-30T04:32:04.022Z,1.87
2019-05-30T04:34:34.449Z,1.53
2019-05-30T04:37:04.893Z,1.87
2019-05-30T04:39:35.315Z,1.70
2019-05-30T04:42:05.729Z,1.43
2019-05-30T04:44:37.192Z,1.47
2019-05-30T04:47:07.621Z,1.67
2019-05-30T04:49:38.191Z,1.40
2019-05-30T04:52:12.129Z,1.40
2019-05-30T04:54:40.744Z,1.43
2019-05-30T04:57:12.577Z,1.70
2019-05-30T04:59:43.223Z,1.20
2019-05-30T05:02:15.361Z,1.17
2019-05-30T05:04:45.732Z,1.20
2019-05-30T05:07:17.696Z,1.40
2019-05-30T05:09:48.498Z,1.20
2019-05-30T05:12:20.271Z,1.50
2019-05-30T05:14:52.249Z,1.23
2019-05-30T05:17:23.189Z,1.27
2019-05-30T05:19:53.768Z,1.20
2019-05-30T05:22:24.246Z,1.60
2019-05-30T05:24:54.662Z,1.40
2019-05-30T05:27:25.090Z,1.33
2019-05-30T05:29:55.530Z,1.30
2019-05-30T05:32:25.952Z,1.30
2019-05-30T05:34:56.371Z,1.30
2019-05-30T05:37:27.375Z,1.20
2019-05-30T05:39:57.848Z,1.30
2019-05-30T05:42:29.951Z,1.00
2019-05-30T05:45:01.678Z,1.27
2019-05-30T05:47:32.194Z,1.00
2019-05-30T05:50:02.878Z,1.20
2019-05-30T05:52:33.509Z,1.17
2019-05-30T05:55:03.985Z,1.13
2019-05-30T05:57:34.414Z,1.40
2019-05-30T06:00:05.327Z,1.03
2019-05-30T06:02:35.777Z,1.30
2019-05-30T06:05:06.602Z,1.40
2019-05-30T06:07:37.052Z,1.20
2019-05-30T06:10:07.890Z,1.30
2019-05-30T06:12:38.358Z,1.10
2019-05-30T06:15:08.911Z,1.40
2019-05-30T06:17:39.571Z,1.20
2019-05-30T06:20:11.973Z,0.90
2019-05-30T06:22:42.627Z,1.00
2019-05-30T06:25:13.836Z,1.17
2019-05-30T06:27:44.246Z,0.90
2019-05-30T06:30:14.992Z,0.80
2019-05-30T06:32:44.576Z,0.80
2019-05-30T06:35:15.199Z,0.90
2019-05-30T06:37:45.657Z,0.80
2019-05-30T06:40:16.246Z,0.80
2019-05-30T06:42:46.891Z,1.00
2019-05-30T06:45:17.443Z,0.90
2019-05-30T06:47:47.884Z,0.80
2019-05-30T06:50:18.395Z,0.90
2019-05-30T06:52:49.040Z,0.90
2019-05-30T06:55:19.525Z,0.90
2019-05-30T06:57:50.089Z,0.90
2019-05-30T07:00:21.724Z,0.70
2019-05-30T07:02:52.398Z,0.90
2019-05-30T07:05:23.339Z,0.70
2019-05-30T07:07:54.570Z,0.87
2019-05-30T07:10:24.867Z,1.10
2019-05-30T07:12:54.610Z,0.70
2019-05-30T07:15:25.477Z,0.77
2019-05-30T07:17:56.064Z,0.70
2019-05-30T07:20:25.600Z,0.50
2019-05-30T07:22:55.394Z,0.63
2019-05-30T07:25:25.697Z,0.73
2019-05-30T07:27:55.223Z,0.60
2019-05-30T07:30:25.854Z,0.80
2019-05-30T07:32:55.566Z,0.43
2019-05-30T07:35:25.934Z,0.80
2019-05-30T07:37:55.659Z,0.70
2019-05-30T07:40:26.483Z,0.50
2019-05-30T07:42:56.351Z,0.60
2019-05-30T07:45:26.791Z,0.73
2019-05-30T07:47:56.384Z,0.80
2019-05-30T07:50:26.811Z,0.80
2019-05-30T07:52:57.239Z,0.73
2019-05-30T07:55:28.817Z,0.60
2019-05-30T07:57:59.468Z,0.47
2019-05-30T08:00:31.311Z,0.63
2019-05-30T08:03:01.821Z,0.70
2019-05-30T08:05:32.662Z,0.60
2019-05-30T08:08:03.166Z,0.78
2019-05-30T08:10:34.024Z,0.95
2019-05-30T08:13:04.751Z,0.70
2019-05-30T08:15:37.103Z,0.65
2019-05-30T08:18:07.538Z,0.60
2019-05-30T08:20:38.116Z,0.60
2019-05-30T08:23:09.987Z,0.70
2019-05-30T08:25:40.666Z,0.80
2019-05-30T08:28:11.224Z,0.50
2019-05-30T08:30:41.826Z,0.80
2019-05-30T08:33:13.799Z,0.50
2019-05-30T08:35:49.830Z,0.50
2019-05-30T08:38:16.402Z,0.50
2019-05-30T08:40:47.896Z,0.50
2019-05-30T08:43:18.582Z,0.57
2019-05-30T08:45:49.005Z,0.40
2019-05-30T08:48:19.433Z,0.30
2019-05-30T08:50:50.985Z,0.50
2019-05-30T08:53:22.758Z,0.40
2019-05-30T08:55:53.161Z,0.60
2019-05-30T08:58:23.598Z,0.60
2019-05-30T09:00:54.073Z,0.50
2019-05-30T09:03:24.548Z,0.40
2019-05-30T09:06:03.341Z,0.50
2019-05-30T09:08:27.045Z,0.57
2019-05-30T09:10:57.477Z,0.47
2019-05-30T09:13:27.942Z,0.30
2019-05-30T09:15:58.622Z,0.50
2019-05-30T09:18:29.369Z,0.40
2019-05-30T09:20:59.809Z,0.40
2019-05-30T09:23:30.225Z,0.57
2019-05-30T09:26:00.656Z,0.40
2019-05-30T09:28:31.077Z,0.50
2019-05-30T09:31:02.574Z,0.40
2019-05-30T09:33:33.047Z,0.60
2019-05-30T09:36:12.820Z,0.50
2019-05-30T09:38:35.553Z,0.40
2019-05-30T09:41:06.257Z,0.30
2019-05-30T09:43:36.711Z,0.40
2019-05-30T09:46:07.730Z,0.30
2019-05-30T09:48:40.196Z,0.30
2019-05-30T09:51:11.669Z,0.30
2019-05-30T09:53:42.750Z,0.20
2019-05-30T09:56:14.378Z,0.20
2019-05-30T09:58:46.027Z,0.28
2019-05-30T10:01:16.666Z,0.40
2019-05-30T10:03:48.389Z,0.30
2019-05-30T10:06:29.036Z,0.30
2019-05-30T10:08:51.221Z,0.40
2019-05-30T10:11:23.037Z,0.40
2019-05-30T10:13:54.319Z,0.30
2019-05-30T10:16:24.910Z,0.40
2019-05-30T10:18:55.376Z,0.50
2019-05-30T10:21:25.814Z,0.30
2019-05-30T10:23:57.554Z,0.30
2019-05-30T10:26:28.191Z,0.30
2019-05-30T10:28:58.842Z,0.20
2019-05-30T10:31:29.363Z,0.35
2019-05-30T10:33:59.835Z,0.30
2019-05-30T10:36:43.428Z,0.30
2019-05-30T10:39:02.420Z,0.40
2019-05-30T10:41:32.920Z,0.60
2019-05-30T10:44:03.342Z,0.55
2019-05-30T10:46:33.770Z,0.50
2019-05-30T10:49:04.197Z,0.47
2019-05-30T10:51:34.623Z,0.60
2019-05-30T10:54:05.324Z,1.22
2019-05-30T10:56:35.773Z,0.50
2019-05-30T10:59:07.913Z,0.68
2019-05-30T11:01:38.383Z,0.82
2019-05-30T11:04:09.015Z,0.85
2019-05-30T11:07:11.050Z,0.70
2019-05-30T11:09:37.067Z,0.90
2019-05-30T11:12:07.599Z,0.80
2019-05-30T11:14:38.138Z,0.50
2019-05-30T11:17:08.635Z,0.60
2019-05-30T11:19:39.216Z,0.40
2019-05-30T11:22:09.642Z,0.50
2019-05-30T11:24:40.241Z,0.40
2019-05-30T11:27:10.697Z,0.40
2019-05-30T11:29:41.133Z,0.50
2019-05-30T11:32:11.565Z,0.40
2019-05-30T11:34:41.998Z,0.50
2019-05-30T11:37:19.624Z,0.50
2019-05-30T11:39:44.766Z,0.65
2019-05-30T11:42:15.216Z,0.30
2019-05-30T11:44:45.642Z,0.42
2019-05-30T11:47:16.069Z,0.40
2019-05-30T11:49:46.499Z,0.47
2019-05-30T11:52:16.916Z,0.50
2019-05-30T11:54:47.351Z,0.50
2019-05-30T11:57:17.985Z,0.60
2019-05-30T11:59:48.412Z,0.40
2019-05-30T12:02:18.825Z,0.50
2019-05-30T12:04:50.424Z,0.62
2019-05-30T12:07:35.433Z,0.55
2019-05-30T12:09:54.842Z,0.50
2019-05-30T12:12:25.357Z,0.75
2019-05-30T12:14:55.831Z,0.60
2019-05-30T12:17:26.419Z,0.62
2019-05-30T12:19:57.585Z,0.70
2019-05-30T12:22:28.079Z,1.05
2019-05-30T12:24:58.516Z,0.60
2019-05-30T12:27:28.943Z,0.75
2019-05-30T12:30:00.432Z,0.93
2019-05-30T12:32:31.130Z,1.10
2019-05-30T12:35:02.848Z,1.00
2019-05-30T12:37:33.516Z,0.80
2019-05-30T12:40:06.965Z,0.88
2019-05-30T12:42:37.443Z,0.68
2019-05-30T12:45:09.172Z,0.62
2019-05-30T12:47:40.495Z,0.78
2019-05-30T12:50:11.479Z,1.10
2019-05-30T12:52:42.263Z,0.80
2019-05-30T12:55:12.794Z,1.00
2019-05-30T12:57:43.281Z,0.98
2019-05-30T13:00:18.664Z,1.05
2019-05-30T13:02:46.482Z,1.20
2019-05-30T13:05:17.190Z,1.50
2019-05-30T13:07:47.652Z,1.20
2019-05-30T13:10:18.604Z,1.32
2019-05-30T13:12:49.062Z,1.00
2019-05-30T13:15:20.018Z,1.02
2019-05-30T13:17:50.475Z,1.20
2019-05-30T13:20:22.619Z,1.40
2019-05-30T13:22:53.186Z,1.80
2019-05-30T13:25:24.114Z,1.52
2019-05-30T13:27:55.651Z,1.70
2019-05-30T13:30:26.514Z,1.47
2019-05-30T13:32:57.043Z,1.60
2019-05-30T13:35:27.457Z,3.50
2019-05-30T13:37:58.967Z,2.27
2019-05-30T13:40:29.542Z,1.60
2019-05-30T13:43:00.128Z,2.12
2019-05-30T13:45:30.645Z,1.60
2019-05-30T13:48:02.390Z,1.35
2019-05-30T13:50:33.000Z,1.87
2019-05-30T13:53:05.335Z,2.62
2019-05-30T13:55:35.894Z,1.15
2019-05-30T13:58:07.730Z,1.10
2019-05-30T14:00:38.303Z,0.95
2019-05-30T14:03:08.719Z,1.00
2019-05-30T14:05:39.152Z,1.20
2019-05-30T14:08:15.993Z,1.00
2019-05-30T14:10:42.471Z,1.30
2019-05-30T14:13:13.054Z,1.10
2019-05-30T14:15:44.791Z,1.05
2019-05-30T14:18:15.483Z,1.00
2019-05-30T14:20:46.114Z,1.10
2019-05-30T14:23:16.749Z,1.20
2019-05-30T14:25:47.215Z,1.02
2019-05-30T14:28:20.674Z,0.90
2019-05-30T14:30:57.538Z,1.05
2019-05-30T14:33:29.308Z,1.05
2019-05-30T14:35:59.738Z,1.07
2019-05-30T14:38:30.146Z,1.10
2019-05-30T14:41:00.591Z,1.35
2019-05-30T14:43:37.263Z,1.05
2019-05-30T14:46:08.966Z,1.20
2019-05-30T14:48:39.463Z,0.80
2019-05-30T14:51:11.083Z,1.10
2019-05-30T14:53:41.629Z,1.30
2019-05-30T14:56:13.341Z,1.47
2019-05-30T14:58:44.022Z,1.35
2019-05-30T15:01:15.475Z,1.32
2019-05-30T15:03:47.657Z,1.50
2019-05-30T15:06:18.111Z,1.30
2019-05-30T15:08:48.800Z,1.40
2019-05-30T15:11:19.327Z,1.82
2019-05-30T15:13:49.746Z,1.60
2019-05-30T15:16:20.229Z,1.35
2019-05-30T15:18:50.758Z,1.62
2019-05-30T15:21:21.345Z,1.60
2019-05-30T15:23:51.794Z,1.52
2019-05-30T15:26:22.198Z,1.45
2019-05-30T15:28:52.614Z,1.50
2019-05-30T15:31:24.077Z,1.40
2019-05-30T15:33:54.506Z,1.42
2019-05-30T15:36:25.114Z,1.30
2019-05-30T15:38:55.561Z,1.20
2019-05-30T15:41:25.992Z,1.25
2019-05-30T15:43:57.919Z,1.45
2019-05-30T15:46:28.444Z,1.50
2019-05-30T15:48:58.954Z,1.20
2019-05-30T15:51:29.427Z,1.30
2019-05-30T15:53:59.854Z,0.98
2019-05-30T15:56:30.291Z,1.05
2019-05-30T15:59:00.722Z,1.10
2019-05-30T16:01:32.168Z,1.20
2019-05-30T16:04:02.597Z,1.00
2019-05-30T16:06:33.011Z,1.00
2019-05-30T16:09:03.763Z,1.30
2019-05-30T16:11:34.185Z,1.10
2019-05-30T16:14:04.817Z,1.10
2019-05-30T16:16:40.194Z,1.07
2019-05-30T16:19:20.070Z,1.20
2019-05-30T16:21:47.986Z,1.10
2019-05-30T16:24:21.596Z,1.52
2019-05-30T16:26:52.019Z,1.65
2019-05-30T16:29:22.432Z,1.85
2019-05-30T16:31:53.169Z,1.40
2019-05-30T16:34:23.598Z,1.60
2019-05-30T16:36:54.071Z,2.00
2019-05-30T16:39:24.539Z,1.80
2019-05-30T16:41:54.962Z,1.80
2019-05-30T16:44:26.643Z,2.20
2019-05-30T16:46:57.255Z,1.50
2019-05-30T16:49:27.795Z,1.90
2019-05-30T16:51:58.262Z,2.70
2019-05-30T16:54:28.751Z,2.00
2019-05-30T16:56:59.177Z,2.20
2019-05-30T16:59:29.592Z,2.00
2019-05-30T17:02:00.133Z,2.20
2019-05-30T17:04:32.095Z,2.87
2019-05-30T17:07:02.515Z,2.37
2019-05-30T17:09:32.950Z,2.12
2019-05-30T17:12:03.366Z,2.40
2019-05-30T17:14:33.789Z,2.40
2019-05-30T17:17:10.200Z,2.65
2019-05-30T17:19:40.696Z,2.30
2019-05-30T17:22:11.374Z,2.50
2019-05-30T17:24:41.873Z,2.40
2019-05-30T17:27:12.287Z,2.17
2019-05-30T17:29:43.730Z,2.67
2019-05-30T17:32:14.240Z,2.40
2019-05-30T17:34:45.827Z,2.30
2019-05-30T17:37:16.237Z,2.27
2019-05-30T17:39:46.665Z,1.80
2019-05-30T17:42:18.719Z,2.40
2019-05-30T17:44:49.402Z,2.47
2019-05-30T17:47:21.205Z,2.60
2019-05-30T17:49:51.763Z,2.60
2019-05-30T17:52:23.671Z,2.77
2019-05-30T17:54:54.298Z,2.80
2019-05-30T17:57:25.724Z,2.70
2019-05-30T17:59:57.455Z,2.67
2019-05-30T18:02:28.553Z,2.67
2019-05-30T18:04:59.186Z,2.53
2019-05-30T18:07:31.256Z,2.70
2019-05-30T18:10:01.733Z,2.63
2019-05-30T18:12:32.159Z,2.90
2019-05-30T18:15:02.576Z,2.20
2019-05-30T18:17:33.067Z,2.80
2019-05-30T18:20:03.854Z,2.80
2019-05-30T18:22:34.450Z,2.67
2019-05-30T18:25:05.171Z,2.80
2019-05-30T18:27:35.655Z,2.33
2019-05-30T18:30:07.092Z,2.77
2019-05-30T18:32:37.521Z,2.50
2019-05-30T18:35:08.242Z,2.77
2019-05-30T18:37:39.706Z,2.93
2019-05-30T18:40:11.760Z,2.97
2019-05-30T18:42:42.360Z,3.00
2019-05-30T18:45:12.995Z,3.10
2019-05-30T18:47:43.870Z,2.77
2019-05-30T18:50:14.402Z,2.70
2019-05-30T18:52:45.134Z,2.70
2019-05-30T18:55:15.576Z,2.40
2019-05-30T18:57:46.029Z,2.60
2019-05-30T19:00:17.659Z,2.33
2019-05-30T19:02:48.791Z,2.40
2019-05-30T19:05:19.206Z,3.03
2019-05-30T19:07:49.033Z,3.10
2019-05-30T19:10:19.545Z,2.63
2019-05-30T19:12:50.154Z,2.80
2019-05-30T19:15:20.786Z,2.93
2019-05-30T19:17:51.454Z,2.77
2019-05-30T19:20:24.174Z,2.33
2019-05-30T19:22:54.772Z,2.40
2019-05-30T19:25:25.192Z,2.30
2019-05-30T19:27:55.666Z,2.80
2019-05-30T19:30:28.544Z,3.30
2019-05-30T19:32:58.417Z,2.60
2019-05-30T19:35:28.959Z,2.90
2019-05-30T19:37:58.773Z,2.50
2019-05-30T19:40:29.478Z,2.17
2019-05-30T19:43:00.029Z,2.30
2019-05-30T19:45:30.449Z,2.53
2019-05-30T19:48:00.698Z,2.60
2019-05-30T19:50:30.424Z,2.53
2019-05-30T19:53:01.019Z,2.40
2019-05-30T19:55:31.559Z,2.60
2019-05-30T19:58:02.281Z,2.50
2019-05-30T20:00:35.362Z,2.70
2019-05-30T20:03:06.001Z,2.53
2019-05-30T20:05:36.810Z,2.43
2019-05-30T20:08:07.591Z,2.23
2019-05-30T20:10:37.329Z,2.47
2019-05-30T20:13:07.811Z,2.50
2019-05-30T20:15:39.441Z,2.23
2019-05-30T20:18:09.394Z,1.97
2019-05-30T20:20:54.077Z,2.33
2019-05-30T20:23:10.832Z,2.30
2019-05-30T20:25:45.844Z,2.33
2019-05-30T20:28:14.883Z,2.20
2019-05-30T20:30:45.658Z,2.27
2019-05-30T20:33:16.143Z,2.10
2019-05-30T20:35:46.938Z,2.00
2019-05-30T20:38:17.514Z,2.20
2019-05-30T20:40:48.038Z,2.40
2019-05-30T20:43:18.581Z,2.43
2019-05-30T20:45:50.137Z,1.63
2019-05-30T20:48:20.725Z,2.30
2019-05-30T20:50:53.286Z,2.30
2019-05-30T20:53:23.756Z,2.17
2019-05-30T20:55:54.183Z,2.60
2019-05-30T20:58:25.193Z,2.10
2019-05-30T21:00:55.651Z,2.67
2019-05-30T21:03:26.328Z,2.00
2019-05-30T21:05:57.913Z,2.50
2019-05-30T21:08:28.534Z,2.30
2019-05-30T21:11:01.458Z,2.33
2019-05-30T21:13:36.226Z,2.70
2019-05-30T21:16:07.898Z,2.60
2019-05-30T21:18:39.669Z,2.70
2019-05-30T21:21:17.399Z,2.60
2019-05-30T21:23:47.824Z,2.70
2019-05-30T21:26:18.305Z,2.33
2019-05-30T21:28:48.778Z,2.23
2019-05-30T21:31:19.206Z,2.60
2019-05-30T21:33:49.956Z,2.53
2019-05-30T21:36:20.458Z,2.40
2019-05-30T21:38:50.897Z,2.43
2019-05-30T21:41:20.505Z,2.70
2019-05-30T21:43:50.213Z,2.67
2019-05-30T21:46:19.795Z,2.93
2019-05-30T21:48:49.317Z,3.70
2019-05-30T21:51:19.754Z,3.17
2019-05-30T21:53:49.712Z,3.17
2019-05-30T21:56:19.352Z,2.60
2019-05-30T21:58:50.426Z,3.23
2019-05-30T22:01:33.179Z,3.37
2019-05-30T22:04:05.790Z,3.33
2019-05-30T22:06:36.651Z,3.40
2019-05-30T22:09:10.268Z,3.50
2019-05-30T22:11:41.911Z,3.10
2019-05-30T22:14:12.336Z,3.63
2019-05-30T22:16:43.853Z,3.20
2019-05-30T22:19:14.597Z,3.73
2019-05-30T22:21:46.126Z,3.37
2019-05-30T22:24:16.798Z,3.17
2019-05-30T22:26:48.237Z,3.27
2019-05-30T22:29:18.993Z,3.10
2019-05-30T22:31:50.777Z,3.30
2019-05-30T22:34:21.486Z,3.00
2019-05-30T22:36:53.003Z,3.10
2019-05-30T22:39:23.570Z,3.50
2019-05-30T22:41:53.991Z,3.60
2019-05-30T22:44:24.628Z,3.37
2019-05-30T22:46:56.806Z,3.60
2019-05-30T22:49:27.227Z,3.87
2019-05-30T22:51:57.351Z,3.50
2019-05-30T22:54:27.862Z,3.90
2019-05-30T22:57:01.194Z,3.83
2019-05-30T22:59:30.364Z,3.90
2019-05-30T23:02:00.783Z,3.37
2019-05-30T23:04:31.207Z,3.87
2019-05-30T23:07:01.647Z,3.83
2019-05-30T23:09:32.158Z,3.93
2019-05-30T23:12:02.603Z,3.50
2019-05-30T23:14:33.017Z,3.70
2019-05-30T23:17:03.548Z,3.20
2019-05-30T23:19:34.035Z,3.93
2019-05-30T23:22:04.565Z,3.33
2019-05-30T23:24:35.241Z,3.40
2019-05-30T23:27:08.154Z,3.47
2019-05-30T23:29:36.911Z,3.90
2019-05-30T23:32:07.348Z,4.30
2019-05-30T23:34:37.866Z,4.17
2019-05-30T23:37:08.385Z,4.67
2019-05-30T23:39:38.892Z,5.70
2019-05-30T23:42:08.432Z,4.73
2019-05-30T23:44:38.871Z,5.10
2019-05-30T23:47:10.405Z,4.47
2019-05-30T23:49:40.848Z,4.80
2019-05-30T23:52:11.275Z,4.23
2019-05-30T23:54:41.689Z,4.03
2019-05-30T23:57:12.131Z,5.23
2019-05-30T23:59:42.864Z,4.70
